sensor_id;sensor_type;location;lat;lon;timestamp;P1;durP1;ratioP1;P2;durP2;ratioP2
51636;SDS011;37713;53.254;6.460;2023-06-22T00:00:49;27.42;;;21.08;;
51636;SDS011;37713;53.254;6.460;2023-06-22T00:03:17;25.88;;;19.75;;
51636;SDS011;37713;53.254;6.460;2023-06-22T00:05:46;27.90;;;21.33;;
51636;SDS011;37713;53.254;6.460;2023-06-22T00:08:12;26.75;;;20.42;;
51636;SDS011;37713;53.254;6.460;2023-06-22T00:10:38;26.63;;;20.95;;
51636;SDS011;37713;53.254;6.460;2023-06-22T00:13:05;26.02;;;21.48;;
51636;SDS011;37713;53.254;6.460;2023-06-22T00:15:32;26.65;;;21.60;;
51636;SDS011;37713;53.254;6.460;2023-06-22T00:17:58;29.52;;;22.05;;
51636;SDS011;37713;53.254;6.460;2023-06-22T00:20:24;30.70;;;22.70;;
51636;SDS011;37713;53.254;6.460;2023-06-22T00:25:20;26.10;;;20.60;;
51636;SDS011;37713;53.254;6.460;2023-06-22T00:27:45;27.67;;;22.20;;
51636;SDS011;37713;53.254;6.460;2023-06-22T00:30:11;29.25;;;22.70;;
51636;SDS011;37713;53.254;6.460;2023-06-22T00:32:37;28.38;;;21.88;;
51636;SDS011;37713;53.254;6.460;2023-06-22T00:35:03;27.20;;;21.27;;
51636;SDS011;37713;53.254;6.460;2023-06-22T00:37:29;28.70;;;21.88;;
51636;SDS011;37713;53.254;6.460;2023-06-22T00:39:58;26.90;;;21.63;;
51636;SDS011;37713;53.254;6.460;2023-06-22T00:42:24;29.00;;;22.98;;
51636;SDS011;37713;53.254;6.460;2023-06-22T00:44:50;27.80;;;22.88;;
51636;SDS011;37713;53.254;6.460;2023-06-22T00:47:16;29.77;;;24.45;;
51636;SDS011;37713;53.254;6.460;2023-06-22T00:49:43;29.00;;;21.77;;
51636;SDS011;37713;53.254;6.460;2023-06-22T00:52:10;30.52;;;23.27;;
51636;SDS011;37713;53.254;6.460;2023-06-22T00:54:42;28.40;;;23.38;;
51636;SDS011;37713;53.254;6.460;2023-06-22T00:57:13;32.45;;;23.63;;
51636;SDS011;37713;53.254;6.460;2023-06-22T00:59:44;31.30;;;23.77;;
51636;SDS011;37713;53.254;6.460;2023-06-22T01:02:11;28.25;;;22.85;;
51636;SDS011;37713;53.254;6.460;2023-06-22T01:04:37;27.50;;;23.23;;
51636;SDS011;37713;53.254;6.460;2023-06-22T01:10:39;28.42;;;23.48;;
51636;SDS011;37713;53.254;6.460;2023-06-22T01:12:48;30.00;;;24.08;;
51636;SDS011;37713;53.254;6.460;2023-06-22T01:17:58;29.58;;;23.58;;
51636;SDS011;37713;53.254;6.460;2023-06-22T01:20:27;31.35;;;24.05;;
51636;SDS011;37713;53.254;6.460;2023-06-22T01:26:08;28.80;;;23.55;;
51636;SDS011;37713;53.254;6.460;2023-06-22T01:31:18;27.65;;;22.20;;
51636;SDS011;37713;53.254;6.460;2023-06-22T01:33:47;25.70;;;21.05;;
51636;SDS011;37713;53.254;6.460;2023-06-22T01:36:16;24.45;;;20.48;;
51636;SDS011;37713;53.254;6.460;2023-06-22T01:38:43;21.83;;;18.17;;
51636;SDS011;37713;53.254;6.460;2023-06-22T01:41:11;23.15;;;17.50;;
51636;SDS011;37713;53.254;6.460;2023-06-22T01:43:37;19.25;;;16.40;;
51636;SDS011;37713;53.254;6.460;2023-06-22T01:46:03;19.23;;;15.98;;
51636;SDS011;37713;53.254;6.460;2023-06-22T01:48:29;20.42;;;17.83;;
51636;SDS011;37713;53.254;6.460;2023-06-22T01:50:56;20.23;;;16.65;;
51636;SDS011;37713;53.254;6.460;2023-06-22T01:53:22;18.80;;;16.00;;
51636;SDS011;37713;53.254;6.460;2023-06-22T01:55:48;21.63;;;17.05;;
51636;SDS011;37713;53.254;6.460;2023-06-22T01:58:14;23.92;;;19.13;;
51636;SDS011;37713;53.254;6.460;2023-06-22T02:00:43;25.63;;;19.20;;
51636;SDS011;37713;53.254;6.460;2023-06-22T02:03:31;22.27;;;17.23;;
51636;SDS011;37713;53.254;6.460;2023-06-22T02:06:23;16.88;;;14.13;;
51636;SDS011;37713;53.254;6.460;2023-06-22T02:08:57;16.50;;;14.50;;
51636;SDS011;37713;53.254;6.460;2023-06-22T02:11:26;15.15;;;13.55;;
51636;SDS011;37713;53.254;6.460;2023-06-22T02:13:54;18.30;;;13.68;;
51636;SDS011;37713;53.254;6.460;2023-06-22T02:16:22;16.75;;;14.23;;
51636;SDS011;37713;53.254;6.460;2023-06-22T02:18:49;16.02;;;14.00;;
51636;SDS011;37713;53.254;6.460;2023-06-22T02:23:44;17.92;;;13.05;;
51636;SDS011;37713;53.254;6.460;2023-06-22T02:26:11;16.67;;;13.93;;
51636;SDS011;37713;53.254;6.460;2023-06-22T02:28:37;16.08;;;13.45;;
51636;SDS011;37713;53.254;6.460;2023-06-22T02:31:03;16.83;;;13.70;;
51636;SDS011;37713;53.254;6.460;2023-06-22T02:33:29;19.17;;;14.02;;
51636;SDS011;37713;53.254;6.460;2023-06-22T02:35:55;20.40;;;16.77;;
51636;SDS011;37713;53.254;6.460;2023-06-22T02:38:21;19.45;;;16.15;;
51636;SDS011;37713;53.254;6.460;2023-06-22T02:40:49;18.73;;;16.35;;
51636;SDS011;37713;53.254;6.460;2023-06-22T02:43:15;20.95;;;16.80;;
51636;SDS011;37713;53.254;6.460;2023-06-22T02:45:41;19.70;;;16.27;;
51636;SDS011;37713;53.254;6.460;2023-06-22T02:48:07;19.17;;;17.10;;
51636;SDS011;37713;53.254;6.460;2023-06-22T02:50:33;16.90;;;15.10;;
51636;SDS011;37713;53.254;6.460;2023-06-22T02:52:59;17.02;;;15.23;;
51636;SDS011;37713;53.254;6.460;2023-06-22T02:55:25;18.08;;;16.13;;
51636;SDS011;37713;53.254;6.460;2023-06-22T02:57:50;20.35;;;16.67;;
51636;SDS011;37713;53.254;6.460;2023-06-22T03:00:19;20.58;;;16.80;;
51636;SDS011;37713;53.254;6.460;2023-06-22T03:02:45;21.85;;;17.73;;
51636;SDS011;37713;53.254;6.460;2023-06-22T03:07:43;19.65;;;16.38;;
51636;SDS011;37713;53.254;6.460;2023-06-22T03:10:10;21.08;;;17.75;;
51636;SDS011;37713;53.254;6.460;2023-06-22T03:12:37;20.70;;;17.80;;
51636;SDS011;37713;53.254;6.460;2023-06-22T03:15:06;22.58;;;17.85;;
51636;SDS011;37713;53.254;6.460;2023-06-22T03:17:33;22.27;;;17.73;;
51636;SDS011;37713;53.254;6.460;2023-06-22T03:20:00;22.50;;;19.23;;
51636;SDS011;37713;53.254;6.460;2023-06-22T03:22:31;24.60;;;19.23;;
51636;SDS011;37713;53.254;6.460;2023-06-22T03:24:57;22.35;;;18.75;;
51636;SDS011;37713;53.254;6.460;2023-06-22T03:27:22;25.70;;;20.52;;
51636;SDS011;37713;53.254;6.460;2023-06-22T03:29:48;24.20;;;20.35;;
51636;SDS011;37713;53.254;6.460;2023-06-22T03:32:14;21.98;;;18.70;;
51636;SDS011;37713;53.254;6.460;2023-06-22T03:34:40;21.85;;;18.98;;
51636;SDS011;37713;53.254;6.460;2023-06-22T03:37:05;22.63;;;20.15;;
51636;SDS011;37713;53.254;6.460;2023-06-22T03:39:31;22.90;;;18.88;;
51636;SDS011;37713;53.254;6.460;2023-06-22T03:41:57;22.45;;;19.27;;
51636;SDS011;37713;53.254;6.460;2023-06-22T03:44:23;24.42;;;20.02;;
51636;SDS011;37713;53.254;6.460;2023-06-22T03:46:48;23.90;;;20.63;;
51636;SDS011;37713;53.254;6.460;2023-06-22T03:49:14;26.00;;;22.58;;
51636;SDS011;37713;53.254;6.460;2023-06-22T03:51:40;26.10;;;22.02;;
51636;SDS011;37713;53.254;6.460;2023-06-22T03:54:06;23.42;;;20.85;;
51636;SDS011;37713;53.254;6.460;2023-06-22T03:56:32;24.75;;;21.95;;
51636;SDS011;37713;53.254;6.460;2023-06-22T03:58:57;25.05;;;21.23;;
51636;SDS011;37713;53.254;6.460;2023-06-22T04:01:23;25.48;;;21.25;;
51636;SDS011;37713;53.254;6.460;2023-06-22T04:03:49;27.45;;;22.98;;
51636;SDS011;37713;53.254;6.460;2023-06-22T04:06:15;26.85;;;23.90;;
51636;SDS011;37713;53.254;6.460;2023-06-22T04:08:40;27.58;;;23.48;;
51636;SDS011;37713;53.254;6.460;2023-06-22T04:11:07;29.15;;;22.13;;
51636;SDS011;37713;53.254;6.460;2023-06-22T04:13:32;26.17;;;20.92;;
51636;SDS011;37713;53.254;6.460;2023-06-22T04:15:58;21.23;;;17.95;;
51636;SDS011;37713;53.254;6.460;2023-06-22T04:18:26;20.67;;;18.45;;
51636;SDS011;37713;53.254;6.460;2023-06-22T04:20:52;21.20;;;18.38;;
51636;SDS011;37713;53.254;6.460;2023-06-22T04:23:17;20.25;;;17.90;;
51636;SDS011;37713;53.254;6.460;2023-06-22T04:25:43;21.60;;;18.88;;
51636;SDS011;37713;53.254;6.460;2023-06-22T04:28:09;21.08;;;18.45;;
51636;SDS011;37713;53.254;6.460;2023-06-22T04:30:37;24.23;;;19.58;;
51636;SDS011;37713;53.254;6.460;2023-06-22T04:33:12;21.42;;;19.13;;
51636;SDS011;37713;53.254;6.460;2023-06-22T04:35:41;20.85;;;18.65;;
51636;SDS011;37713;53.254;6.460;2023-06-22T04:38:12;21.85;;;18.55;;
51636;SDS011;37713;53.254;6.460;2023-06-22T04:40:39;21.08;;;18.90;;
51636;SDS011;37713;53.254;6.460;2023-06-22T04:43:05;19.83;;;17.75;;
51636;SDS011;37713;53.254;6.460;2023-06-22T04:45:32;20.95;;;18.75;;
51636;SDS011;37713;53.254;6.460;2023-06-22T04:47:58;23.30;;;20.80;;
51636;SDS011;37713;53.254;6.460;2023-06-22T04:50:24;25.98;;;22.02;;
51636;SDS011;37713;53.254;6.460;2023-06-22T04:52:50;27.98;;;23.52;;
51636;SDS011;37713;53.254;6.460;2023-06-22T04:55:16;28.73;;;25.30;;
51636;SDS011;37713;53.254;6.460;2023-06-22T04:57:44;32.25;;;26.77;;
51636;SDS011;37713;53.254;6.460;2023-06-22T05:00:13;32.42;;;26.50;;
51636;SDS011;37713;53.254;6.460;2023-06-22T05:02:42;36.85;;;29.40;;
51636;SDS011;37713;53.254;6.460;2023-06-22T05:05:09;59.05;;;44.22;;
51636;SDS011;37713;53.254;6.460;2023-06-22T05:07:39;45.20;;;36.25;;
51636;SDS011;37713;53.254;6.460;2023-06-22T05:10:09;38.35;;;31.38;;
51636;SDS011;37713;53.254;6.460;2023-06-22T05:12:37;45.17;;;36.25;;
51636;SDS011;37713;53.254;6.460;2023-06-22T05:15:04;44.25;;;36.58;;
51636;SDS011;37713;53.254;6.460;2023-06-22T05:17:31;40.42;;;33.90;;
51636;SDS011;37713;53.254;6.460;2023-06-22T05:19:56;41.30;;;34.05;;
51636;SDS011;37713;53.254;6.460;2023-06-22T05:22:22;42.83;;;32.67;;
51636;SDS011;37713;53.254;6.460;2023-06-22T05:24:48;43.17;;;33.63;;
51636;SDS011;37713;53.254;6.460;2023-06-22T05:27:14;42.45;;;34.08;;
51636;SDS011;37713;53.254;6.460;2023-06-22T05:29:40;41.58;;;33.03;;
51636;SDS011;37713;53.254;6.460;2023-06-22T05:32:07;42.28;;;34.30;;
51636;SDS011;37713;53.254;6.460;2023-06-22T05:34:33;42.70;;;34.72;;
51636;SDS011;37713;53.254;6.460;2023-06-22T05:36:59;44.85;;;34.55;;
51636;SDS011;37713;53.254;6.460;2023-06-22T05:39:25;43.60;;;35.28;;
51636;SDS011;37713;53.254;6.460;2023-06-22T05:41:51;40.78;;;34.42;;
51636;SDS011;37713;53.254;6.460;2023-06-22T05:44:17;44.97;;;35.28;;
51636;SDS011;37713;53.254;6.460;2023-06-22T05:46:43;46.55;;;37.88;;
51636;SDS011;37713;53.254;6.460;2023-06-22T05:49:11;53.45;;;42.13;;
51636;SDS011;37713;53.254;6.460;2023-06-22T05:51:38;50.45;;;41.08;;
51636;SDS011;37713;53.254;6.460;2023-06-22T05:54:04;49.28;;;40.72;;
51636;SDS011;37713;53.254;6.460;2023-06-22T05:56:30;51.47;;;39.60;;
51636;SDS011;37713;53.254;6.460;2023-06-22T05:58:56;49.10;;;39.45;;
51636;SDS011;37713;53.254;6.460;2023-06-22T06:01:21;54.67;;;39.67;;
51636;SDS011;37713;53.254;6.460;2023-06-22T06:03:47;48.78;;;39.47;;
51636;SDS011;37713;53.254;6.460;2023-06-22T06:06:14;57.60;;;41.45;;
51636;SDS011;37713;53.254;6.460;2023-06-22T06:08:40;50.72;;;40.97;;
51636;SDS011;37713;53.254;6.460;2023-06-22T06:11:06;51.80;;;41.20;;
51636;SDS011;37713;53.254;6.460;2023-06-22T06:13:32;51.13;;;41.97;;
51636;SDS011;37713;53.254;6.460;2023-06-22T06:15:58;52.38;;;41.88;;
51636;SDS011;37713;53.254;6.460;2023-06-22T06:18:24;56.85;;;42.97;;
51636;SDS011;37713;53.254;6.460;2023-06-22T06:20:50;48.25;;;40.40;;
51636;SDS011;37713;53.254;6.460;2023-06-22T06:23:16;58.42;;;42.47;;
51636;SDS011;37713;53.254;6.460;2023-06-22T06:25:42;51.35;;;41.95;;
51636;SDS011;37713;53.254;6.460;2023-06-22T06:28:08;50.10;;;40.15;;
51636;SDS011;37713;53.254;6.460;2023-06-22T06:30:33;53.08;;;42.38;;
51636;SDS011;37713;53.254;6.460;2023-06-22T06:33:02;51.55;;;41.00;;
51636;SDS011;37713;53.254;6.460;2023-06-22T06:35:29;49.88;;;40.97;;
51636;SDS011;37713;53.254;6.460;2023-06-22T06:37:55;51.75;;;39.70;;
51636;SDS011;37713;53.254;6.460;2023-06-22T06:40:21;44.25;;;38.55;;
51636;SDS011;37713;53.254;6.460;2023-06-22T06:42:47;51.13;;;41.28;;
51636;SDS011;37713;53.254;6.460;2023-06-22T06:47:44;44.28;;;35.97;;
51636;SDS011;37713;53.254;6.460;2023-06-22T06:50:10;45.45;;;37.05;;
51636;SDS011;37713;53.254;6.460;2023-06-22T06:52:36;46.45;;;35.60;;
51636;SDS011;37713;53.254;6.460;2023-06-22T06:55:03;41.47;;;34.55;;
51636;SDS011;37713;53.254;6.460;2023-06-22T06:57:32;37.92;;;32.65;;
51636;SDS011;37713;53.254;6.460;2023-06-22T06:59:59;38.58;;;31.65;;
51636;SDS011;37713;53.254;6.460;2023-06-22T07:02:25;37.17;;;31.30;;
51636;SDS011;37713;53.254;6.460;2023-06-22T07:04:53;35.05;;;28.70;;
51636;SDS011;37713;53.254;6.460;2023-06-22T07:07:20;35.15;;;28.85;;
51636;SDS011;37713;53.254;6.460;2023-06-22T07:09:46;32.90;;;27.45;;
51636;SDS011;37713;53.254;6.460;2023-06-22T07:12:12;35.05;;;27.77;;
51636;SDS011;37713;53.254;6.460;2023-06-22T07:14:38;34.05;;;27.83;;
51636;SDS011;37713;53.254;6.460;2023-06-22T07:17:04;33.50;;;26.77;;
51636;SDS011;37713;53.254;6.460;2023-06-22T07:19:29;30.48;;;25.00;;
51636;SDS011;37713;53.254;6.460;2023-06-22T07:21:56;28.48;;;23.63;;
51636;SDS011;37713;53.254;6.460;2023-06-22T07:24:22;28.77;;;21.85;;
51636;SDS011;37713;53.254;6.460;2023-06-22T07:26:49;25.10;;;20.08;;
51636;SDS011;37713;53.254;6.460;2023-06-22T07:29:21;23.92;;;19.67;;
51636;SDS011;37713;53.254;6.460;2023-06-22T07:31:48;22.23;;;17.10;;
51636;SDS011;37713;53.254;6.460;2023-06-22T07:34:15;19.17;;;16.90;;
51636;SDS011;37713;53.254;6.460;2023-06-22T07:36:41;21.00;;;16.48;;
51636;SDS011;37713;53.254;6.460;2023-06-22T07:39:06;20.50;;;15.73;;
51636;SDS011;37713;53.254;6.460;2023-06-22T07:41:32;20.58;;;16.67;;
51636;SDS011;37713;53.254;6.460;2023-06-22T07:43:58;20.40;;;16.30;;
51636;SDS011;37713;53.254;6.460;2023-06-22T07:46:24;17.45;;;14.32;;
51636;SDS011;37713;53.254;6.460;2023-06-22T07:48:49;17.48;;;13.35;;
51636;SDS011;37713;53.254;6.460;2023-06-22T07:51:15;17.67;;;14.23;;
51636;SDS011;37713;53.254;6.460;2023-06-22T07:53:42;18.20;;;14.77;;
51636;SDS011;37713;53.254;6.460;2023-06-22T07:56:12;18.65;;;14.88;;
51636;SDS011;37713;53.254;6.460;2023-06-22T07:58:38;17.23;;;13.90;;
51636;SDS011;37713;53.254;6.460;2023-06-22T08:01:05;16.95;;;12.40;;
51636;SDS011;37713;53.254;6.460;2023-06-22T08:03:31;16.67;;;12.45;;
51636;SDS011;37713;53.254;6.460;2023-06-22T08:05:57;15.95;;;12.13;;
51636;SDS011;37713;53.254;6.460;2023-06-22T08:08:23;14.07;;;10.90;;
51636;SDS011;37713;53.254;6.460;2023-06-22T08:10:49;14.27;;;10.27;;
51636;SDS011;37713;53.254;6.460;2023-06-22T08:13:15;13.73;;;9.88;;
51636;SDS011;37713;53.254;6.460;2023-06-22T08:15:41;15.38;;;10.45;;
51636;SDS011;37713;53.254;6.460;2023-06-22T08:18:06;12.38;;;9.00;;
51636;SDS011;37713;53.254;6.460;2023-06-22T08:20:32;12.48;;;8.77;;
51636;SDS011;37713;53.254;6.460;2023-06-22T08:22:58;14.43;;;9.45;;
51636;SDS011;37713;53.254;6.460;2023-06-22T08:25:30;13.80;;;9.10;;
51636;SDS011;37713;53.254;6.460;2023-06-22T08:27:56;11.80;;;8.40;;
51636;SDS011;37713;53.254;6.460;2023-06-22T08:30:21;12.07;;;8.77;;
51636;SDS011;37713;53.254;6.460;2023-06-22T08:32:47;11.20;;;8.02;;
51636;SDS011;37713;53.254;6.460;2023-06-22T08:35:13;11.95;;;8.57;;
51636;SDS011;37713;53.254;6.460;2023-06-22T08:37:39;10.40;;;7.50;;
51636;SDS011;37713;53.254;6.460;2023-06-22T08:40:05;13.45;;;7.50;;
51636;SDS011;37713;53.254;6.460;2023-06-22T08:42:33;11.95;;;7.45;;
51636;SDS011;37713;53.254;6.460;2023-06-22T08:44:59;12.70;;;7.25;;
51636;SDS011;37713;53.254;6.460;2023-06-22T08:47:27;11.70;;;7.57;;
51636;SDS011;37713;53.254;6.460;2023-06-22T08:49:53;10.65;;;6.20;;
51636;SDS011;37713;53.254;6.460;2023-06-22T08:52:19;8.68;;;5.20;;
51636;SDS011;37713;53.254;6.460;2023-06-22T08:54:45;10.07;;;5.82;;
51636;SDS011;37713;53.254;6.460;2023-06-22T08:57:12;8.10;;;5.47;;
51636;SDS011;37713;53.254;6.460;2023-06-22T08:59:37;10.52;;;5.88;;
51636;SDS011;37713;53.254;6.460;2023-06-22T09:02:03;10.88;;;5.75;;
51636;SDS011;37713;53.254;6.460;2023-06-22T09:04:29;9.43;;;5.28;;
51636;SDS011;37713;53.254;6.460;2023-06-22T09:06:57;10.18;;;5.30;;
51636;SDS011;37713;53.254;6.460;2023-06-22T09:09:23;10.80;;;5.05;;
51636;SDS011;37713;53.254;6.460;2023-06-22T09:11:48;16.42;;;5.50;;
51636;SDS011;37713;53.254;6.460;2023-06-22T09:14:14;9.05;;;4.38;;
51636;SDS011;37713;53.254;6.460;2023-06-22T09:16:40;12.27;;;5.55;;
51636;SDS011;37713;53.254;6.460;2023-06-22T09:19:06;9.52;;;4.97;;
51636;SDS011;37713;53.254;6.460;2023-06-22T09:21:31;8.65;;;5.50;;
51636;SDS011;37713;53.254;6.460;2023-06-22T09:23:57;8.75;;;5.88;;
51636;SDS011;37713;53.254;6.460;2023-06-22T09:26:23;8.00;;;5.05;;
51636;SDS011;37713;53.254;6.460;2023-06-22T09:28:49;7.60;;;5.22;;
51636;SDS011;37713;53.254;6.460;2023-06-22T09:31:15;8.43;;;4.93;;
51636;SDS011;37713;53.254;6.460;2023-06-22T09:33:42;11.07;;;6.43;;
51636;SDS011;37713;53.254;6.460;2023-06-22T09:36:08;10.73;;;5.55;;
51636;SDS011;37713;53.254;6.460;2023-06-22T09:38:37;9.27;;;6.03;;
51636;SDS011;37713;53.254;6.460;2023-06-22T09:41:03;9.52;;;6.95;;
51636;SDS011;37713;53.254;6.460;2023-06-22T09:43:31;10.70;;;6.55;;
51636;SDS011;37713;53.254;6.460;2023-06-22T09:45:57;11.13;;;7.90;;
51636;SDS011;37713;53.254;6.460;2023-06-22T09:48:23;11.10;;;7.90;;
51636;SDS011;37713;53.254;6.460;2023-06-22T09:50:49;10.25;;;6.30;;
51636;SDS011;37713;53.254;6.460;2023-06-22T09:53:15;8.35;;;5.53;;
51636;SDS011;37713;53.254;6.460;2023-06-22T09:55:40;9.70;;;5.80;;
51636;SDS011;37713;53.254;6.460;2023-06-22T09:58:06;13.52;;;7.30;;
51636;SDS011;37713;53.254;6.460;2023-06-22T10:00:33;10.48;;;7.97;;
51636;SDS011;37713;53.254;6.460;2023-06-22T10:02:59;12.13;;;8.20;;
51636;SDS011;37713;53.254;6.460;2023-06-22T10:05:25;10.13;;;7.45;;
51636;SDS011;37713;53.254;6.460;2023-06-22T10:07:51;12.68;;;7.95;;
51636;SDS011;37713;53.254;6.460;2023-06-22T10:10:17;12.13;;;8.43;;
51636;SDS011;37713;53.254;6.460;2023-06-22T10:12:46;13.75;;;10.05;;
51636;SDS011;37713;53.254;6.460;2023-06-22T10:15:19;13.68;;;9.20;;
51636;SDS011;37713;53.254;6.460;2023-06-22T10:17:46;12.30;;;8.38;;
51636;SDS011;37713;53.254;6.460;2023-06-22T10:20:12;12.80;;;8.52;;
51636;SDS011;37713;53.254;6.460;2023-06-22T10:22:42;14.30;;;8.45;;
51636;SDS011;37713;53.254;6.460;2023-06-22T10:25:09;13.13;;;8.20;;
51636;SDS011;37713;53.254;6.460;2023-06-22T10:27:38;12.85;;;9.35;;
51636;SDS011;37713;53.254;6.460;2023-06-22T10:30:05;11.02;;;9.15;;
51636;SDS011;37713;53.254;6.460;2023-06-22T10:32:35;14.05;;;8.93;;
51636;SDS011;37713;53.254;6.460;2023-06-22T10:35:01;13.95;;;8.57;;
51636;SDS011;37713;53.254;6.460;2023-06-22T10:37:27;13.95;;;8.50;;
51636;SDS011;37713;53.254;6.460;2023-06-22T10:39:53;13.15;;;9.23;;
51636;SDS011;37713;53.254;6.460;2023-06-22T10:42:19;12.75;;;8.95;;
51636;SDS011;37713;53.254;6.460;2023-06-22T10:44:45;11.20;;;7.80;;
51636;SDS011;37713;53.254;6.460;2023-06-22T10:47:11;11.45;;;7.95;;
51636;SDS011;37713;53.254;6.460;2023-06-22T10:49:37;11.48;;;8.00;;
51636;SDS011;37713;53.254;6.460;2023-06-22T10:52:04;12.57;;;8.63;;
51636;SDS011;37713;53.254;6.460;2023-06-22T10:56:59;11.75;;;6.70;;
51636;SDS011;37713;53.254;6.460;2023-06-22T10:59:25;13.18;;;8.00;;
51636;SDS011;37713;53.254;6.460;2023-06-22T11:01:52;10.00;;;7.40;;
51636;SDS011;37713;53.254;6.460;2023-06-22T11:04:18;13.75;;;9.32;;
51636;SDS011;37713;53.254;6.460;2023-06-22T11:06:44;13.50;;;7.65;;
51636;SDS011;37713;53.254;6.460;2023-06-22T11:09:10;11.82;;;7.57;;
51636;SDS011;37713;53.254;6.460;2023-06-22T11:11:36;12.88;;;8.18;;
51636;SDS011;37713;53.254;6.460;2023-06-22T11:14:02;11.93;;;8.90;;
51636;SDS011;37713;53.254;6.460;2023-06-22T11:16:28;13.98;;;8.93;;
51636;SDS011;37713;53.254;6.460;2023-06-22T11:18:53;13.73;;;9.68;;
51636;SDS011;37713;53.254;6.460;2023-06-22T11:21:19;15.10;;;8.85;;
51636;SDS011;37713;53.254;6.460;2023-06-22T11:23:45;12.27;;;7.93;;
51636;SDS011;37713;53.254;6.460;2023-06-22T11:26:11;14.00;;;8.43;;
51636;SDS011;37713;53.254;6.460;2023-06-22T11:28:36;12.23;;;8.55;;
51636;SDS011;37713;53.254;6.460;2023-06-22T11:31:02;16.13;;;9.27;;
51636;SDS011;37713;53.254;6.460;2023-06-22T11:33:28;14.50;;;9.00;;
51636;SDS011;37713;53.254;6.460;2023-06-22T11:35:54;11.93;;;7.68;;
51636;SDS011;37713;53.254;6.460;2023-06-22T11:38:21;10.45;;;7.35;;
51636;SDS011;37713;53.254;6.460;2023-06-22T11:40:47;11.38;;;6.75;;
51636;SDS011;37713;53.254;6.460;2023-06-22T11:43:13;12.70;;;8.27;;
51636;SDS011;37713;53.254;6.460;2023-06-22T11:45:40;11.05;;;7.57;;
51636;SDS011;37713;53.254;6.460;2023-06-22T11:48:06;10.60;;;7.32;;
51636;SDS011;37713;53.254;6.460;2023-06-22T11:50:32;13.30;;;7.07;;
51636;SDS011;37713;53.254;6.460;2023-06-22T11:53:01;11.05;;;6.82;;
51636;SDS011;37713;53.254;6.460;2023-06-22T11:55:28;9.02;;;6.55;;
51636;SDS011;37713;53.254;6.460;2023-06-22T11:57:54;8.70;;;5.28;;
51636;SDS011;37713;53.254;6.460;2023-06-22T12:00:21;8.55;;;5.60;;
51636;SDS011;37713;53.254;6.460;2023-06-22T12:02:49;10.27;;;5.60;;
51636;SDS011;37713;53.254;6.460;2023-06-22T12:05:17;10.35;;;6.35;;
51636;SDS011;37713;53.254;6.460;2023-06-22T12:07:45;7.72;;;5.00;;
51636;SDS011;37713;53.254;6.460;2023-06-22T12:10:11;9.02;;;5.40;;
51636;SDS011;37713;53.254;6.460;2023-06-22T12:12:37;7.90;;;5.30;;
51636;SDS011;37713;53.254;6.460;2023-06-22T12:15:03;11.00;;;5.80;;
51636;SDS011;37713;53.254;6.460;2023-06-22T12:17:29;10.18;;;5.78;;
51636;SDS011;37713;53.254;6.460;2023-06-22T12:19:55;10.68;;;5.38;;
51636;SDS011;37713;53.254;6.460;2023-06-22T12:22:21;9.77;;;5.47;;
51636;SDS011;37713;53.254;6.460;2023-06-22T12:24:47;8.13;;;4.90;;
51636;SDS011;37713;53.254;6.460;2023-06-22T12:27:13;7.95;;;4.97;;
51636;SDS011;37713;53.254;6.460;2023-06-22T12:29:41;7.22;;;4.55;;
51636;SDS011;37713;53.254;6.460;2023-06-22T12:32:07;7.05;;;4.22;;
51636;SDS011;37713;53.254;6.460;2023-06-22T12:34:33;7.55;;;4.47;;
51636;SDS011;37713;53.254;6.460;2023-06-22T12:36:58;8.05;;;4.40;;
51636;SDS011;37713;53.254;6.460;2023-06-22T12:39:24;8.00;;;4.50;;
51636;SDS011;37713;53.254;6.460;2023-06-22T12:41:50;7.65;;;4.53;;
51636;SDS011;37713;53.254;6.460;2023-06-22T12:44:16;7.50;;;4.30;;
51636;SDS011;37713;53.254;6.460;2023-06-22T12:46:42;7.50;;;4.35;;
51636;SDS011;37713;53.254;6.460;2023-06-22T12:49:08;7.82;;;4.82;;
51636;SDS011;37713;53.254;6.460;2023-06-22T12:51:39;10.57;;;4.60;;
51636;SDS011;37713;53.254;6.460;2023-06-22T12:54:08;7.15;;;4.85;;
51636;SDS011;37713;53.254;6.460;2023-06-22T12:56:35;6.03;;;3.95;;
51636;SDS011;37713;53.254;6.460;2023-06-22T12:59:01;6.18;;;3.85;;
51636;SDS011;37713;53.254;6.460;2023-06-22T13:01:27;6.60;;;3.90;;
51636;SDS011;37713;53.254;6.460;2023-06-22T13:03:53;5.70;;;3.08;;
51636;SDS011;37713;53.254;6.460;2023-06-22T13:06:19;7.63;;;3.88;;
51636;SDS011;37713;53.254;6.460;2023-06-22T13:08:45;7.78;;;4.50;;
51636;SDS011;37713;53.254;6.460;2023-06-22T13:11:11;7.10;;;4.20;;
51636;SDS011;37713;53.254;6.460;2023-06-22T13:13:36;8.00;;;4.60;;
51636;SDS011;37713;53.254;6.460;2023-06-22T13:16:03;7.68;;;4.00;;
51636;SDS011;37713;53.254;6.460;2023-06-22T13:18:29;7.45;;;4.38;;
51636;SDS011;37713;53.254;6.460;2023-06-22T13:20:55;5.82;;;3.45;;
51636;SDS011;37713;53.254;6.460;2023-06-22T13:23:21;5.50;;;3.00;;
51636;SDS011;37713;53.254;6.460;2023-06-22T13:25:47;5.70;;;2.80;;
51636;SDS011;37713;53.254;6.460;2023-06-22T13:28:12;5.90;;;3.00;;
51636;SDS011;37713;53.254;6.460;2023-06-22T13:30:39;5.95;;;2.30;;
51636;SDS011;37713;53.254;6.460;2023-06-22T13:33:05;5.88;;;2.40;;
51636;SDS011;37713;53.254;6.460;2023-06-22T13:35:31;4.50;;;2.17;;
51636;SDS011;37713;53.254;6.460;2023-06-22T13:37:57;4.07;;;2.05;;
51636;SDS011;37713;53.254;6.460;2023-06-22T13:40:23;6.00;;;2.42;;
51636;SDS011;37713;53.254;6.460;2023-06-22T13:42:48;5.30;;;2.20;;
51636;SDS011;37713;53.254;6.460;2023-06-22T13:45:14;5.25;;;2.50;;
51636;SDS011;37713;53.254;6.460;2023-06-22T13:47:42;6.32;;;2.00;;
51636;SDS011;37713;53.254;6.460;2023-06-22T13:50:08;7.60;;;2.50;;
51636;SDS011;37713;53.254;6.460;2023-06-22T13:52:35;5.38;;;2.42;;
51636;SDS011;37713;53.254;6.460;2023-06-22T13:55:01;4.13;;;2.05;;
51636;SDS011;37713;53.254;6.460;2023-06-22T13:57:27;4.70;;;2.15;;
51636;SDS011;37713;53.254;6.460;2023-06-22T13:59:53;5.97;;;2.38;;
51636;SDS011;37713;53.254;6.460;2023-06-22T14:02:19;4.88;;;2.13;;
51636;SDS011;37713;53.254;6.460;2023-06-22T14:04:44;4.43;;;2.35;;
51636;SDS011;37713;53.254;6.460;2023-06-22T14:07:10;5.40;;;2.40;;
51636;SDS011;37713;53.254;6.460;2023-06-22T14:09:36;6.57;;;2.05;;
51636;SDS011;37713;53.254;6.460;2023-06-22T14:12:05;6.88;;;2.05;;
51636;SDS011;37713;53.254;6.460;2023-06-22T14:14:32;4.05;;;1.92;;
51636;SDS011;37713;53.254;6.460;2023-06-22T14:16:58;5.03;;;1.90;;
51636;SDS011;37713;53.254;6.460;2023-06-22T14:19:24;5.50;;;2.40;;
51636;SDS011;37713;53.254;6.460;2023-06-22T14:21:50;3.75;;;1.90;;
51636;SDS011;37713;53.254;6.460;2023-06-22T14:24:16;4.07;;;2.00;;
51636;SDS011;37713;53.254;6.460;2023-06-22T14:26:42;5.05;;;1.98;;
51636;SDS011;37713;53.254;6.460;2023-06-22T14:29:08;3.45;;;1.77;;
51636;SDS011;37713;53.254;6.460;2023-06-22T14:31:33;6.30;;;2.50;;
51636;SDS011;37713;53.254;6.460;2023-06-22T14:33:59;5.93;;;2.50;;
51636;SDS011;37713;53.254;6.460;2023-06-22T14:36:25;4.60;;;2.03;;
51636;SDS011;37713;53.254;6.460;2023-06-22T14:38:51;6.20;;;2.40;;
51636;SDS011;37713;53.254;6.460;2023-06-22T14:41:17;5.15;;;2.28;;
51636;SDS011;37713;53.254;6.460;2023-06-22T14:43:46;4.45;;;2.20;;
51636;SDS011;37713;53.254;6.460;2023-06-22T14:46:17;4.53;;;1.92;;
51636;SDS011;37713;53.254;6.460;2023-06-22T14:48:43;5.45;;;2.10;;
51636;SDS011;37713;53.254;6.460;2023-06-22T14:51:10;5.22;;;1.90;;